首页
METAR-TAF:

METAR-TAF

机场 :

素万那普机场

新曼谷, 泰国

纬度: 13-40-52N, 经度: 100-44-50E, 海拔: 2米

当前天气观测

该预报发布于30分钟前的14:30 UTC
风速6节,风向南转西南
温度 27°C
湿度 79%
气压 1008 hPa
能见度10公里或以上
少量云层高于2000英尺

METAR: VTBS 171430Z 21006KT 9999 FEW020 27/23 Q1008 NOSIG

时间: 22:00 (15:00 UTC)

预报

该预报发布于4小时和0分钟前的11:00 UTC
预报有效从17日的 12点(UTC)到 18日的 18点(UTC)
风速8节,风向南转西南
能见度10公里或以上
少量云层高于2000英尺
短暂存在
从 17日的 14点(UTC)到 17日的 18点(UTC)
风速15节,风向多变
能見度: 3000
少量云层高于1800英尺, 积雨云.
散云层高于3000英尺
多云层高于10000英尺
雷暴, 雨,

TAF: VTBS 171100Z 1712/1818 21008KT 9999 FEW020 TEMPO 1714/1718 VRB15KT 3000 TSRA FEW018CB SCT030 BKN100

超过4000个机场的气象观测和天气预报(METAR&TAF报告)。

可查询的气象台以黄色和红色小点在地图上表示。

将鼠标移到小点上方,可查看气象台名称。

然后点击查看天气观测和预报。

如需切换地图:点击带黑十字的绿色按钮放大地图;点击带横线的绿色按钮缩小地图;或者点击绿色箭头查看邻近地区的地图。


METAR-TAF: